»·PEaware :: N525ER KPMD-KMCC

N525ER :: KPMD-KMCC

FLIGHT INFORMATION

Flight Status: Arrived
Operator: Privately registered:
United States
More flights under this callsign
Pilot: Douglas P. (31154)
Aircraft: BEECH AIRCRAFT BARON
(BE58)
More flights by this aircraft type
Origin: KPMD Palmdale AF Plant 42
United States
Destination: KMCC McClellan
United States
More flights between these airports :: More routes between these airports
Route:
File this flight plan on PilotEdge
Remarks:
Altitude:
(Current/Filed)
6,500ft
Speed:
(Current/Filed)
0kts
Departed: 26-Jan-21 03:58 PM
Arrived: 26-Jan-21 05:31 PM
Distance/Time
Traveled:
290nm/1:33
Distance/Time
To Go:
Arrived

Flight Plot

Page will automatically refresh every two minutes.

Flight plan parsing failed; only flown route is shown


Map Options




Map Legend


Flown Route
Filed Route
Departure Airport
Arrival Airport
Navaid (VOR, NDB)
Fix

Horizontal Profiles

Position Reports

Time Latitude Longitude Heading Altitude Ground
Speed
26-Jan-21 15:56 34.675964 -118.136622 352 6204ft 182kts
26-Jan-21 15:57 34.721101 -118.157513 332 7498ft 175kts
26-Jan-21 15:58 34.762729 -118.187539 324 8504ft 172kts
26-Jan-21 15:59 34.803160 -118.218808 326 9508ft 171kts
26-Jan-21 16:00 34.843221 -118.249908 323 10380ft 175kts
26-Jan-21 16:01 34.886432 -118.283562 324 10494ft 190kts
26-Jan-21 16:02 34.931431 -118.318584 323 10496ft 191kts
26-Jan-21 16:03 34.976388 -118.353511 323 10498ft 191kts
26-Jan-21 16:04 35.021293 -118.388579 324 10506ft 192kts
26-Jan-21 16:05 35.066226 -118.423644 323 10497ft 190kts
26-Jan-21 16:06 35.110686 -118.458369 323 10505ft 190kts
26-Jan-21 16:07 35.155600 -118.493540 323 10503ft 192kts
26-Jan-21 16:08 35.200308 -118.528568 324 10500ft 189kts
26-Jan-21 16:09 35.244997 -118.563647 324 10502ft 191kts
26-Jan-21 16:10 35.289745 -118.598778 324 10502ft 191kts
26-Jan-21 16:11 35.334623 -118.634142 324 10495ft 190kts
26-Jan-21 16:12 35.379293 -118.669298 324 10500ft 190kts
26-Jan-21 16:13 35.423940 -118.704543 324 10496ft 190kts
26-Jan-21 16:14 35.468536 -118.739784 324 10503ft 190kts
26-Jan-21 16:15 35.512979 -118.774935 324 10504ft 190kts
26-Jan-21 16:16 35.557672 -118.810340 324 10493ft 190kts
26-Jan-21 16:17 35.602191 -118.845644 324 10502ft 190kts
26-Jan-21 16:18 35.646784 -118.881083 324 10514ft 190kts
26-Jan-21 16:19 35.691494 -118.916644 324 10526ft 190kts
26-Jan-21 16:20 35.735988 -118.952077 324 10528ft 190kts
26-Jan-21 16:21 35.780424 -118.987516 324 10529ft 190kts
26-Jan-21 16:22 35.824809 -119.022975 323 10529ft 190kts
26-Jan-21 16:24 35.869169 -119.058435 323 10528ft 190kts
26-Jan-21 16:25 35.913555 -119.093985 323 10529ft 190kts
26-Jan-21 16:26 35.957886 -119.129531 323 10529ft 189kts
26-Jan-21 16:27 36.002136 -119.165060 323 10529ft 189kts
26-Jan-21 16:28 36.045355 -119.199810 323 10529ft 189kts
26-Jan-21 16:29 36.089991 -119.235702 326 10529ft 193kts
26-Jan-21 16:30 36.135556 -119.272591 326 10529ft 197kts
26-Jan-21 16:31 36.181667 -119.309654 326 10529ft 197kts
26-Jan-21 16:32 36.227759 -119.346970 326 10529ft 197kts
26-Jan-21 16:33 36.273939 -119.384397 326 10501ft 198kts
26-Jan-21 16:34 36.320060 -119.421757 326 10499ft 197kts
26-Jan-21 16:35 36.366116 -119.459171 326 10499ft 197kts
26-Jan-21 16:35 36.404441 -119.490329 326 10499ft 197kts
26-Jan-21 16:37 36.458230 -119.534128 326 10499ft 197kts
26-Jan-21 16:37 36.496589 -119.565409 326 10499ft 197kts
26-Jan-21 16:38 36.542522 -119.602916 326 10499ft 197kts
26-Jan-21 16:39 36.588655 -119.640637 326 10499ft 197kts
26-Jan-21 16:40 36.634611 -119.678270 326 10499ft 197kts
26-Jan-21 16:41 36.680500 -119.715904 326 10499ft 197kts
26-Jan-21 16:42 36.726535 -119.753712 326 10499ft 197kts
26-Jan-21 16:43 36.772419 -119.791446 326 10499ft 197kts
26-Jan-21 16:44 36.818431 -119.829350 326 10499ft 197kts
26-Jan-21 16:45 36.864332 -119.867211 326 10500ft 197kts
26-Jan-21 16:46 36.910286 -119.905170 326 10499ft 197kts
26-Jan-21 16:47 36.956128 -119.943096 326 10499ft 197kts
26-Jan-21 16:48 37.002105 -119.981189 326 10478ft 198kts
26-Jan-21 16:49 37.048088 -120.019345 326 10473ft 197kts
26-Jan-21 16:50 37.093942 -120.057441 326 10385ft 202kts
26-Jan-21 16:51 37.141486 -120.097023 326 9882ft 205kts
26-Jan-21 16:52 37.189099 -120.136726 326 9380ft 206kts
26-Jan-21 16:53 37.236861 -120.176560 326 8880ft 206kts
26-Jan-21 16:54 37.284404 -120.216318 326 8531ft 201kts
26-Jan-21 16:55 37.330559 -120.254965 325 8502ft 198kts
26-Jan-21 16:56 37.376334 -120.293354 325 8500ft 197kts
26-Jan-21 16:57 37.422006 -120.331708 325 8500ft 197kts
26-Jan-21 16:58 37.467635 -120.370113 326 8481ft 196kts
26-Jan-21 16:59 37.512707 -120.408046 326 8471ft 194kts
26-Jan-21 17:00 37.555760 -120.444355 326 8470ft 192kts
26-Jan-21 17:01 37.600086 -120.481820 326 8470ft 191kts
26-Jan-21 17:02 37.644414 -120.519322 326 8470ft 192kts
26-Jan-21 17:03 37.688787 -120.556910 326 8470ft 192kts
26-Jan-21 17:04 37.733197 -120.594597 326 8470ft 192kts
26-Jan-21 17:05 37.777544 -120.632279 326 8470ft 192kts
26-Jan-21 17:06 37.821826 -120.669961 326 8494ft 191kts
26-Jan-21 17:07 37.866097 -120.707694 326 8499ft 191kts
26-Jan-21 17:08 37.908888 -120.744212 326 8463ft 193kts
26-Jan-21 17:09 37.948668 -120.778207 326 8009ft 201kts
26-Jan-21 17:10 37.994279 -120.817246 326 7415ft 199kts
26-Jan-21 17:11 38.040079 -120.856507 326 6814ft 198kts
26-Jan-21 17:12 38.085307 -120.895345 326 6466ft 191kts
26-Jan-21 17:13 38.129100 -120.932978 326 6443ft 188kts
26-Jan-21 17:14 38.172240 -120.970134 326 6495ft 188kts
26-Jan-21 17:15 38.215659 -121.007574 326 6499ft 188kts
26-Jan-21 17:16 38.260689 -121.046460 326 5900ft 198kts
26-Jan-21 17:17 38.306394 -121.085984 326 5296ft 198kts
26-Jan-21 17:18 38.351516 -121.125175 329 4697ft 196kts
26-Jan-21 17:19 38.396353 -121.163987 327 4456ft 194kts
26-Jan-21 17:20 38.441726 -121.203339 324 4443ft 197kts
26-Jan-21 17:21 38.485006 -121.241116 322 3943ft 184kts
26-Jan-21 17:22 38.525111 -121.276094 323 3353ft 166kts
26-Jan-21 17:23 38.562413 -121.308564 327 2752ft 161kts
26-Jan-21 17:24 38.593838 -121.345924 306 2027ft 150kts
26-Jan-21 17:25 38.616386 -121.387727 308 1853ft 140kts
26-Jan-21 17:26 38.639337 -121.429486 315 1893ft 144kts
26-Jan-21 17:27 38.674381 -121.446637 7 1543ft 133kts
26-Jan-21 17:28 38.700554 -121.414468 85 957ft 139kts
26-Jan-21 17:29 38.677509 -121.400504 189 80ft 64kts
26-Jan-21 17:30 38.669096 -121.398722 95 76ft 26kts
26-Jan-21 17:31 38.667601 -121.395558 118 78ft 14kts
26-Jan-21 17:32 38.666996 -121.396077 35 78ft 0kts
26-Jan-21 17:33 38.667246 -121.396030 0 78ft 0kts

Navigation Log

Ident Type
Flight plan parsing failed, navigation log unavailable